ADDS METAR Data INFO
IDs: Format: Raw Decoded Include TAF

Data at: 0400 UTC 17 Jul 2018

METAR for:KFFT (Frankfort/Capital Ci, KY, US)
Text:KFFT 170353Z AUTO 22003KT 9SM CLR 24/22 A2994 RMK AO2 SLP132 T02390222
Temperature: 23.9°C ( 75°F)
Dewpoint: 22.2°C ( 72°F) [RH = 90%]
Pressure (altimeter):29.94 inches Hg (1014.0 mb) [Sea level pressure: 1013.2 mb]
Winds:from the SW (220 degrees) at 3 MPH (3 knots; 1.5 m/s)
Visibility: 9 sm ( 14 km)
Ceiling:at least 12,000 feet AGL
Clouds:sky clear below 12,000 feet AGL
QC Flag:automated observation with no human augmentation